sensor_id;sensor_type;location;lat;lon;timestamp;pressure;altitude;pressure_sealevel;temperature;humidity
64862;BME280;62652;42.274;-71.436;2023-05-16T00:00:01;100450.0;;;21.611111111111114;unknown
64862;BME280;62652;42.274;-71.436;2023-05-16T00:01:00;100450.0;;;21.611111111111114;unknown
64862;BME280;62652;42.274;-71.436;2023-05-16T00:02:01;100450.0;;;21.722222222222218;unknown
64862;BME280;62652;42.274;-71.436;2023-05-16T00:03:01;100450.0;;;21.611111111111114;unknown
64862;BME280;62652;42.274;-71.436;2023-05-16T00:04:01;100450.0;;;21.722222222222218;unknown
64862;BME280;62652;42.274;-71.436;2023-05-16T00:05:01;100450.0;;;21.722222222222218;unknown
64862;BME280;62652;42.274;-71.436;2023-05-16T00:06:00;100440.0;;;21.722222222222218;unknown
64862;BME280;62652;42.274;-71.436;2023-05-16T00:07:00;100440.0;;;21.722222222222218;unknown
64862;BME280;62652;42.274;-71.436;2023-05-16T00:08:00;100440.0;;;21.722222222222218;unknown
64862;BME280;62652;42.274;-71.436;2023-05-16T00:09:00;100430.0;;;21.722222222222218;unknown
64862;BME280;62652;42.274;-71.436;2023-05-16T00:10:01;100440.0;;;21.611111111111114;unknown
64862;BME280;62652;42.274;-71.436;2023-05-16T00:11:01;100440.0;;;21.611111111111114;unknown
64862;BME280;62652;42.274;-71.436;2023-05-16T00:12:01;100440.0;;;21.611111111111114;unknown
64862;BME280;62652;42.274;-71.436;2023-05-16T00:13:00;100440.0;;;21.611111111111114;unknown
64862;BME280;62652;42.274;-71.436;2023-05-16T00:14:01;100440.0;;;21.38888888888889;unknown
64862;BME280;62652;42.274;-71.436;2023-05-16T00:15:01;100440.0;;;21.27777777777778;unknown
64862;BME280;62652;42.274;-71.436;2023-05-16T00:16:00;100440.0;;;21.22222222222222;unknown
64862;BME280;62652;42.274;-71.436;2023-05-16T00:17:00;100440.0;;;21.22222222222222;unknown
64862;BME280;62652;42.274;-71.436;2023-05-16T00:18:01;100450.0;;;21.22222222222222;unknown
64862;BME280;62652;42.274;-71.436;2023-05-16T00:19:00;100450.0;;;21.27777777777778;unknown
64862;BME280;62652;42.274;-71.436;2023-05-16T00:20:01;100440.0;;;21.11111111111111;unknown
64862;BME280;62652;42.274;-71.436;2023-05-16T00:21:01;100450.0;;;21.11111111111111;unknown
64862;BME280;62652;42.274;-71.436;2023-05-16T00:22:00;100450.0;;;21.11111111111111;unknown
64862;BME280;62652;42.274;-71.436;2023-05-16T00:23:00;100440.0;;;21.0;unknown
64862;BME280;62652;42.274;-71.436;2023-05-16T00:24:00;100440.0;;;21.0;unknown
64862;BME280;62652;42.274;-71.436;2023-05-16T00:25:00;100440.0;;;21.0;unknown
64862;BME280;62652;42.274;-71.436;2023-05-16T00:26:00;100430.0;;;21.0;unknown
64862;BME280;62652;42.274;-71.436;2023-05-16T00:27:00;100440.0;;;21.0;unknown
64862;BME280;62652;42.274;-71.436;2023-05-16T00:28:00;100440.0;;;21.0;unknown
64862;BME280;62652;42.274;-71.436;2023-05-16T00:29:01;100430.0;;;21.0;unknown
64862;BME280;62652;42.274;-71.436;2023-05-16T00:30:01;100430.0;;;20.888888888888886;unknown
64862;BME280;62652;42.274;-71.436;2023-05-16T00:31:00;100430.0;;;20.888888888888886;unknown
64862;BME280;62652;42.274;-71.436;2023-05-16T00:32:00;100430.0;;;20.888888888888886;unknown
64862;BME280;62652;42.274;-71.436;2023-05-16T00:33:00;100430.0;;;20.777777777777782;unknown
64862;BME280;62652;42.274;-71.436;2023-05-16T00:34:01;100430.0;;;20.777777777777782;unknown
64862;BME280;62652;42.274;-71.436;2023-05-16T00:35:01;100430.0;;;20.777777777777782;unknown
64862;BME280;62652;42.274;-71.436;2023-05-16T00:36:01;100430.0;;;20.777777777777782;unknown
64862;BME280;62652;42.274;-71.436;2023-05-16T00:37:01;100430.0;;;20.777777777777782;unknown
64862;BME280;62652;42.274;-71.436;2023-05-16T00:38:01;100430.0;;;20.777777777777782;unknown
64862;BME280;62652;42.274;-71.436;2023-05-16T00:39:00;100440.0;;;20.777777777777782;unknown
64862;BME280;62652;42.274;-71.436;2023-05-16T00:40:01;100440.0;;;20.72222222222222;unknown
64862;BME280;62652;42.274;-71.436;2023-05-16T00:41:00;100440.0;;;20.72222222222222;unknown
64862;BME280;62652;42.274;-71.436;2023-05-16T00:42:00;100440.0;;;20.611111111111107;unknown
64862;BME280;62652;42.274;-71.436;2023-05-16T00:43:01;100440.0;;;20.611111111111107;unknown
64862;BME280;62652;42.274;-71.436;2023-05-16T00:44:00;100440.0;;;20.500000000000004;unknown
64862;BME280;62652;42.274;-71.436;2023-05-16T00:45:01;100450.0;;;20.38888888888889;unknown
64862;BME280;62652;42.274;-71.436;2023-05-16T00:46:00;100450.0;;;20.38888888888889;unknown
64862;BME280;62652;42.274;-71.436;2023-05-16T00:47:00;100450.0;;;20.27777777777778;unknown
64862;BME280;62652;42.274;-71.436;2023-05-16T00:48:01;100450.0;;;20.222222222222225;unknown
64862;BME280;62652;42.274;-71.436;2023-05-16T00:49:01;100460.0;;;20.11111111111111;unknown
64862;BME280;62652;42.274;-71.436;2023-05-16T00:50:00;100460.0;;;20.11111111111111;unknown
64862;BME280;62652;42.274;-71.436;2023-05-16T00:51:01;100450.0;;;20.0;unknown
64862;BME280;62652;42.274;-71.436;2023-05-16T00:52:01;100460.0;;;19.88888888888889;unknown
64862;BME280;62652;42.274;-71.436;2023-05-16T00:53:00;100450.0;;;19.88888888888889;unknown
64862;BME280;62652;42.274;-71.436;2023-05-16T00:54:01;100460.0;;;19.777777777777775;unknown
64862;BME280;62652;42.274;-71.436;2023-05-16T00:55:01;100460.0;;;19.777777777777775;unknown
64862;BME280;62652;42.274;-71.436;2023-05-16T00:56:01;100460.0;;;19.61111111111111;unknown
64862;BME280;62652;42.274;-71.436;2023-05-16T00:57:01;100470.0;;;19.61111111111111;unknown
64862;BME280;62652;42.274;-71.436;2023-05-16T00:58:01;100470.0;;;19.499999999999996;unknown
64862;BME280;62652;42.274;-71.436;2023-05-16T00:59:01;100470.0;;;19.499999999999996;unknown
64862;BME280;62652;42.274;-71.436;2023-05-16T01:00:00;100480.0;;;19.388888888888893;unknown
64862;BME280;62652;42.274;-71.436;2023-05-16T01:01:01;100470.0;;;19.27777777777778;unknown
64862;BME280;62652;42.274;-71.436;2023-05-16T01:02:01;100470.0;;;19.27777777777778;unknown
64862;BME280;62652;42.274;-71.436;2023-05-16T01:03:01;100480.0;;;19.27777777777778;unknown
64862;BME280;62652;42.274;-71.436;2023-05-16T01:04:01;100480.0;;;19.27777777777778;unknown
64862;BME280;62652;42.274;-71.436;2023-05-16T01:05:01;100480.0;;;19.222222222222218;unknown
64862;BME280;62652;42.274;-71.436;2023-05-16T01:06:00;100480.0;;;19.222222222222218;unknown
64862;BME280;62652;42.274;-71.436;2023-05-16T01:07:01;100480.0;;;19.222222222222218;unknown
64862;BME280;62652;42.274;-71.436;2023-05-16T01:08:00;100480.0;;;19.111111111111114;unknown
64862;BME280;62652;42.274;-71.436;2023-05-16T01:09:01;100480.0;;;19.222222222222218;unknown
64862;BME280;62652;42.274;-71.436;2023-05-16T01:10:02;100470.0;;;19.0;unknown
64862;BME280;62652;42.274;-71.436;2023-05-16T01:11:05;100470.0;;;19.0;unknown
64862;BME280;62652;42.274;-71.436;2023-05-16T01:12:08;100470.0;;;19.111111111111114;unknown
64862;BME280;62652;42.274;-71.436;2023-05-16T01:13:10;100470.0;;;19.0;unknown
64862;BME280;62652;42.274;-71.436;2023-05-16T01:14:11;100470.0;;;19.0;unknown
64862;BME280;62652;42.274;-71.436;2023-05-16T01:15:05;100470.0;;;19.0;unknown
64862;BME280;62652;42.274;-71.436;2023-05-16T01:16:08;100480.0;;;19.0;unknown
64862;BME280;62652;42.274;-71.436;2023-05-16T01:17:06;100480.0;;;19.0;unknown
64862;BME280;62652;42.274;-71.436;2023-05-16T01:18:05;100480.0;;;19.0;unknown
64862;BME280;62652;42.274;-71.436;2023-05-16T01:19:07;100480.0;;;19.111111111111114;unknown
64862;BME280;62652;42.274;-71.436;2023-05-16T01:20:07;100490.0;;;19.111111111111114;unknown
64862;BME280;62652;42.274;-71.436;2023-05-16T01:21:05;100490.0;;;19.111111111111114;unknown
64862;BME280;62652;42.274;-71.436;2023-05-16T01:22:02;100500.0;;;19.111111111111114;unknown
64862;BME280;62652;42.274;-71.436;2023-05-16T01:23:15;100500.0;;;19.111111111111114;unknown
64862;BME280;62652;42.274;-71.436;2023-05-16T01:24:07;100500.0;;;19.222222222222218;unknown
64862;BME280;62652;42.274;-71.436;2023-05-16T01:25:05;100500.0;;;19.222222222222218;unknown
64862;BME280;62652;42.274;-71.436;2023-05-16T01:26:12;100500.0;;;19.222222222222218;unknown
64862;BME280;62652;42.274;-71.436;2023-05-16T01:27:02;100500.0;;;19.222222222222218;unknown
64862;BME280;62652;42.274;-71.436;2023-05-16T01:28:01;100490.0;;;19.222222222222218;unknown
64862;BME280;62652;42.274;-71.436;2023-05-16T01:29:01;100490.0;;;19.222222222222218;unknown
64862;BME280;62652;42.274;-71.436;2023-05-16T01:30:12;100490.0;;;19.222222222222218;unknown
64862;BME280;62652;42.274;-71.436;2023-05-16T01:31:00;100490.0;;;19.222222222222218;unknown
64862;BME280;62652;42.274;-71.436;2023-05-16T01:32:01;100490.0;;;19.111111111111114;unknown
64862;BME280;62652;42.274;-71.436;2023-05-16T01:33:00;100490.0;;;19.111111111111114;unknown
64862;BME280;62652;42.274;-71.436;2023-05-16T01:34:01;100490.0;;;19.111111111111114;unknown
64862;BME280;62652;42.274;-71.436;2023-05-16T01:35:01;100480.0;;;19.222222222222218;unknown
64862;BME280;62652;42.274;-71.436;2023-05-16T01:36:08;100480.0;;;19.111111111111114;unknown
64862;BME280;62652;42.274;-71.436;2023-05-16T01:37:08;100490.0;;;19.111111111111114;unknown
64862;BME280;62652;42.274;-71.436;2023-05-16T01:38:05;100480.0;;;19.0;unknown
64862;BME280;62652;42.274;-71.436;2023-05-16T01:39:06;100480.0;;;19.0;unknown
64862;BME280;62652;42.274;-71.436;2023-05-16T01:40:06;100480.0;;;19.0;unknown
64862;BME280;62652;42.274;-71.436;2023-05-16T01:41:06;100480.0;;;19.111111111111114;unknown
64862;BME280;62652;42.274;-71.436;2023-05-16T01:42:03;100470.0;;;19.0;unknown
64862;BME280;62652;42.274;-71.436;2023-05-16T01:43:06;100480.0;;;19.0;unknown
64862;BME280;62652;42.274;-71.436;2023-05-16T01:44:04;100480.0;;;18.88888888888889;unknown
64862;BME280;62652;42.274;-71.436;2023-05-16T01:45:08;100480.0;;;18.88888888888889;unknown
64862;BME280;62652;42.274;-71.436;2023-05-16T01:46:06;100480.0;;;18.88888888888889;unknown
64862;BME280;62652;42.274;-71.436;2023-05-16T01:47:03;100480.0;;;18.88888888888889;unknown
64862;BME280;62652;42.274;-71.436;2023-05-16T01:48:06;100480.0;;;18.88888888888889;unknown
64862;BME280;62652;42.274;-71.436;2023-05-16T01:49:06;100490.0;;;18.88888888888889;unknown
64862;BME280;62652;42.274;-71.436;2023-05-16T01:50:07;100490.0;;;18.88888888888889;unknown
64862;BME280;62652;42.274;-71.436;2023-05-16T01:51:01;100500.0;;;18.77777777777778;unknown
64862;BME280;62652;42.274;-71.436;2023-05-16T01:52:04;100500.0;;;18.77777777777778;unknown
64862;BME280;62652;42.274;-71.436;2023-05-16T01:53:06;100500.0;;;18.77777777777778;unknown
64862;BME280;62652;42.274;-71.436;2023-05-16T01:54:04;100500.0;;;18.72222222222222;unknown
64862;BME280;62652;42.274;-71.436;2023-05-16T01:55:02;100500.0;;;18.72222222222222;unknown
64862;BME280;62652;42.274;-71.436;2023-05-16T01:56:01;100500.0;;;18.61111111111111;unknown
64862;BME280;62652;42.274;-71.436;2023-05-16T01:57:03;100490.0;;;18.61111111111111;unknown
64862;BME280;62652;42.274;-71.436;2023-05-16T01:58:02;100500.0;;;18.61111111111111;unknown
64862;BME280;62652;42.274;-71.436;2023-05-16T01:59:01;100500.0;;;18.5;unknown
64862;BME280;62652;42.274;-71.436;2023-05-16T02:00:01;100500.0;;;18.5;unknown
64862;BME280;62652;42.274;-71.436;2023-05-16T02:01:01;100500.0;;;18.5;unknown
64862;BME280;62652;42.274;-71.436;2023-05-16T02:02:01;100500.0;;;18.5;unknown
64862;BME280;62652;42.274;-71.436;2023-05-16T02:03:00;100500.0;;;18.5;unknown
64862;BME280;62652;42.274;-71.436;2023-05-16T02:04:01;100500.0;;;18.5;unknown
64862;BME280;62652;42.274;-71.436;2023-05-16T02:05:00;100500.0;;;18.5;unknown
64862;BME280;62652;42.274;-71.436;2023-05-16T02:06:01;100500.0;;;18.5;unknown
64862;BME280;62652;42.274;-71.436;2023-05-16T02:07:01;100500.0;;;18.388888888888886;unknown
64862;BME280;62652;42.274;-71.436;2023-05-16T02:08:01;100500.0;;;18.388888888888886;unknown
64862;BME280;62652;42.274;-71.436;2023-05-16T02:09:00;100500.0;;;18.277777777777782;unknown
64862;BME280;62652;42.274;-71.436;2023-05-16T02:10:01;100490.0;;;18.277777777777782;unknown
64862;BME280;62652;42.274;-71.436;2023-05-16T02:11:00;100490.0;;;18.277777777777782;unknown
64862;BME280;62652;42.274;-71.436;2023-05-16T02:12:01;100480.0;;;18.388888888888886;unknown
64862;BME280;62652;42.274;-71.436;2023-05-16T02:13:01;100480.0;;;18.277777777777782;unknown
64862;BME280;62652;42.274;-71.436;2023-05-16T02:14:00;100480.0;;;18.388888888888886;unknown
64862;BME280;62652;42.274;-71.436;2023-05-16T02:15:00;100480.0;;;18.277777777777782;unknown
64862;BME280;62652;42.274;-71.436;2023-05-16T02:16:00;100480.0;;;18.388888888888886;unknown
64862;BME280;62652;42.274;-71.436;2023-05-16T02:17:00;100480.0;;;18.388888888888886;unknown
64862;BME280;62652;42.274;-71.436;2023-05-16T02:18:00;100480.0;;;18.277777777777782;unknown
64862;BME280;62652;42.274;-71.436;2023-05-16T02:19:01;100480.0;;;18.388888888888886;unknown
64862;BME280;62652;42.274;-71.436;2023-05-16T02:20:01;100480.0;;;18.388888888888886;unknown
64862;BME280;62652;42.274;-71.436;2023-05-16T02:21:01;100480.0;;;18.388888888888886;unknown
64862;BME280;62652;42.274;-71.436;2023-05-16T02:22:00;100480.0;;;18.388888888888886;unknown
64862;BME280;62652;42.274;-71.436;2023-05-16T02:23:01;100480.0;;;18.388888888888886;unknown
64862;BME280;62652;42.274;-71.436;2023-05-16T02:24:01;100480.0;;;18.388888888888886;unknown
64862;BME280;62652;42.274;-71.436;2023-05-16T02:25:02;100470.0;;;18.388888888888886;unknown
64862;BME280;62652;42.274;-71.436;2023-05-16T02:26:00;100470.0;;;18.277777777777782;unknown
64862;BME280;62652;42.274;-71.436;2023-05-16T02:27:00;100480.0;;;18.277777777777782;unknown
64862;BME280;62652;42.274;-71.436;2023-05-16T02:28:00;100480.0;;;18.277777777777782;unknown
64862;BME280;62652;42.274;-71.436;2023-05-16T02:29:01;100480.0;;;18.277777777777782;unknown
64862;BME280;62652;42.274;-71.436;2023-05-16T02:30:01;100470.0;;;18.22222222222222;unknown
64862;BME280;62652;42.274;-71.436;2023-05-16T02:31:01;100480.0;;;18.111111111111107;unknown
64862;BME280;62652;42.274;-71.436;2023-05-16T02:32:01;100480.0;;;18.111111111111107;unknown
64862;BME280;62652;42.274;-71.436;2023-05-16T02:33:01;100480.0;;;18.000000000000004;unknown
64862;BME280;62652;42.274;-71.436;2023-05-16T02:34:01;100480.0;;;17.88888888888889;unknown
64862;BME280;62652;42.274;-71.436;2023-05-16T02:35:01;100480.0;;;17.88888888888889;unknown
64862;BME280;62652;42.274;-71.436;2023-05-16T02:36:01;100480.0;;;17.77777777777778;unknown
64862;BME280;62652;42.274;-71.436;2023-05-16T02:37:00;100480.0;;;17.77777777777778;unknown
64862;BME280;62652;42.274;-71.436;2023-05-16T02:38:01;100480.0;;;17.61111111111111;unknown
64862;BME280;62652;42.274;-71.436;2023-05-16T02:39:01;100480.0;;;17.61111111111111;unknown
64862;BME280;62652;42.274;-71.436;2023-05-16T02:40:00;100480.0;;;17.5;unknown
64862;BME280;62652;42.274;-71.436;2023-05-16T02:41:01;100480.0;;;17.5;unknown
64862;BME280;62652;42.274;-71.436;2023-05-16T02:42:00;100480.0;;;17.5;unknown
64862;BME280;62652;42.274;-71.436;2023-05-16T02:43:00;100480.0;;;17.5;unknown
64862;BME280;62652;42.274;-71.436;2023-05-16T02:44:00;100480.0;;;17.5;unknown
64862;BME280;62652;42.274;-71.436;2023-05-16T02:45:00;100480.0;;;17.5;unknown
64862;BME280;62652;42.274;-71.436;2023-05-16T02:46:03;100470.0;;;17.38888888888889;unknown
64862;BME280;62652;42.274;-71.436;2023-05-16T02:47:01;100470.0;;;17.38888888888889;unknown
64862;BME280;62652;42.274;-71.436;2023-05-16T02:48:01;100470.0;;;17.38888888888889;unknown
64862;BME280;62652;42.274;-71.436;2023-05-16T02:49:00;100470.0;;;17.38888888888889;unknown
64862;BME280;62652;42.274;-71.436;2023-05-16T02:50:01;100470.0;;;17.38888888888889;unknown
64862;BME280;62652;42.274;-71.436;2023-05-16T02:51:00;100470.0;;;17.38888888888889;unknown
64862;BME280;62652;42.274;-71.436;2023-05-16T02:52:00;100470.0;;;17.38888888888889;unknown
64862;BME280;62652;42.274;-71.436;2023-05-16T02:53:00;100460.0;;;17.38888888888889;unknown
64862;BME280;62652;42.274;-71.436;2023-05-16T02:54:01;100460.0;;;17.38888888888889;unknown
64862;BME280;62652;42.274;-71.436;2023-05-16T02:55:00;100450.0;;;17.38888888888889;unknown
64862;BME280;62652;42.274;-71.436;2023-05-16T02:56:00;100450.0;;;17.38888888888889;unknown
64862;BME280;62652;42.274;-71.436;2023-05-16T02:57:01;100450.0;;;17.38888888888889;unknown
64862;BME280;62652;42.274;-71.436;2023-05-16T02:58:01;100450.0;;;17.38888888888889;unknown
64862;BME280;62652;42.274;-71.436;2023-05-16T02:59:00;100450.0;;;17.27777777777778;unknown
64862;BME280;62652;42.274;-71.436;2023-05-16T03:00:00;100440.0;;;17.27777777777778;unknown
64862;BME280;62652;42.274;-71.436;2023-05-16T03:01:01;100440.0;;;17.27777777777778;unknown
64862;BME280;62652;42.274;-71.436;2023-05-16T03:02:01;100440.0;;;17.22222222222222;unknown
64862;BME280;62652;42.274;-71.436;2023-05-16T03:03:00;100440.0;;;17.22222222222222;unknown
64862;BME280;62652;42.274;-71.436;2023-05-16T03:04:00;100440.0;;;17.22222222222222;unknown
64862;BME280;62652;42.274;-71.436;2023-05-16T03:05:01;100440.0;;;17.22222222222222;unknown
64862;BME280;62652;42.274;-71.436;2023-05-16T03:06:01;100440.0;;;17.22222222222222;unknown
64862;BME280;62652;42.274;-71.436;2023-05-16T03:07:00;100440.0;;;17.11111111111111;unknown
64862;BME280;62652;42.274;-71.436;2023-05-16T03:08:00;100430.0;;;17.22222222222222;unknown
64862;BME280;62652;42.274;-71.436;2023-05-16T03:09:01;100430.0;;;17.22222222222222;unknown
64862;BME280;62652;42.274;-71.436;2023-05-16T03:10:00;100430.0;;;17.11111111111111;unknown
64862;BME280;62652;42.274;-71.436;2023-05-16T03:11:01;100430.0;;;17.11111111111111;unknown
64862;BME280;62652;42.274;-71.436;2023-05-16T03:12:00;100430.0;;;17.11111111111111;unknown
64862;BME280;62652;42.274;-71.436;2023-05-16T03:13:00;100430.0;;;17.11111111111111;unknown
64862;BME280;62652;42.274;-71.436;2023-05-16T03:14:01;100430.0;;;17.0;unknown
64862;BME280;62652;42.274;-71.436;2023-05-16T03:15:01;100430.0;;;17.0;unknown
64862;BME280;62652;42.274;-71.436;2023-05-16T03:16:01;100440.0;;;17.0;unknown
64862;BME280;62652;42.274;-71.436;2023-05-16T03:17:00;100430.0;;;16.88888888888889;unknown
64862;BME280;62652;42.274;-71.436;2023-05-16T03:18:00;100430.0;;;17.0;unknown
64862;BME280;62652;42.274;-71.436;2023-05-16T03:19:01;100430.0;;;16.88888888888889;unknown
64862;BME280;62652;42.274;-71.436;2023-05-16T03:20:01;100430.0;;;16.88888888888889;unknown
64862;BME280;62652;42.274;-71.436;2023-05-16T03:21:00;100430.0;;;16.88888888888889;unknown
64862;BME280;62652;42.274;-71.436;2023-05-16T03:22:00;100430.0;;;16.88888888888889;unknown
64862;BME280;62652;42.274;-71.436;2023-05-16T03:23:01;100430.0;;;16.77777777777778;unknown
64862;BME280;62652;42.274;-71.436;2023-05-16T03:24:01;100430.0;;;16.77777777777778;unknown
64862;BME280;62652;42.274;-71.436;2023-05-16T03:25:01;100430.0;;;16.77777777777778;unknown
64862;BME280;62652;42.274;-71.436;2023-05-16T03:26:01;100430.0;;;16.77777777777778;unknown
64862;BME280;62652;42.274;-71.436;2023-05-16T03:27:00;100420.0;;;16.77777777777778;unknown
64862;BME280;62652;42.274;-71.436;2023-05-16T03:28:01;100430.0;;;16.72222222222222;unknown
64862;BME280;62652;42.274;-71.436;2023-05-16T03:29:00;100430.0;;;16.72222222222222;unknown
64862;BME280;62652;42.274;-71.436;2023-05-16T03:30:00;100430.0;;;16.72222222222222;unknown
64862;BME280;62652;42.274;-71.436;2023-05-16T03:31:00;100420.0;;;16.72222222222222;unknown
64862;BME280;62652;42.274;-71.436;2023-05-16T03:32:00;100420.0;;;16.72222222222222;unknown
64862;BME280;62652;42.274;-71.436;2023-05-16T03:33:01;100420.0;;;16.72222222222222;unknown
64862;BME280;62652;42.274;-71.436;2023-05-16T03:34:00;100420.0;;;16.72222222222222;unknown
64862;BME280;62652;42.274;-71.436;2023-05-16T03:35:00;100420.0;;;16.72222222222222;unknown
64862;BME280;62652;42.274;-71.436;2023-05-16T03:36:01;100420.0;;;16.72222222222222;unknown
64862;BME280;62652;42.274;-71.436;2023-05-16T03:37:00;100420.0;;;16.72222222222222;unknown
64862;BME280;62652;42.274;-71.436;2023-05-16T03:38:01;100420.0;;;16.77777777777778;unknown
64862;BME280;62652;42.274;-71.436;2023-05-16T03:39:01;100420.0;;;16.77777777777778;unknown
64862;BME280;62652;42.274;-71.436;2023-05-16T03:40:00;100410.0;;;16.77777777777778;unknown
64862;BME280;62652;42.274;-71.436;2023-05-16T03:41:01;100410.0;;;16.77777777777778;unknown
64862;BME280;62652;42.274;-71.436;2023-05-16T03:42:00;100410.0;;;16.77777777777778;unknown
64862;BME280;62652;42.274;-71.436;2023-05-16T03:43:00;100410.0;;;16.77777777777778;unknown
64862;BME280;62652;42.274;-71.436;2023-05-16T03:44:00;100410.0;;;16.77777777777778;unknown
64862;BME280;62652;42.274;-71.436;2023-05-16T03:45:01;100410.0;;;16.77777777777778;unknown
64862;BME280;62652;42.274;-71.436;2023-05-16T03:46:01;100410.0;;;16.77777777777778;unknown
64862;BME280;62652;42.274;-71.436;2023-05-16T03:47:01;100410.0;;;16.88888888888889;unknown
64862;BME280;62652;42.274;-71.436;2023-05-16T03:48:00;100410.0;;;16.88888888888889;unknown
64862;BME280;62652;42.274;-71.436;2023-05-16T03:49:01;100410.0;;;16.88888888888889;unknown
64862;BME280;62652;42.274;-71.436;2023-05-16T03:50:00;100400.0;;;16.88888888888889;unknown
64862;BME280;62652;42.274;-71.436;2023-05-16T03:51:00;100400.0;;;16.88888888888889;unknown
64862;BME280;62652;42.274;-71.436;2023-05-16T03:52:00;100400.0;;;16.88888888888889;unknown
64862;BME280;62652;42.274;-71.436;2023-05-16T03:53:00;100400.0;;;16.88888888888889;unknown
64862;BME280;62652;42.274;-71.436;2023-05-16T03:54:01;100400.0;;;16.88888888888889;unknown
64862;BME280;62652;42.274;-71.436;2023-05-16T03:55:01;100400.0;;;17.0;unknown
64862;BME280;62652;42.274;-71.436;2023-05-16T03:56:00;100390.0;;;16.88888888888889;unknown
64862;BME280;62652;42.274;-71.436;2023-05-16T03:57:00;100390.0;;;17.0;unknown
64862;BME280;62652;42.274;-71.436;2023-05-16T03:58:01;100390.0;;;17.0;unknown
64862;BME280;62652;42.274;-71.436;2023-05-16T03:59:00;100390.0;;;17.0;unknown
64862;BME280;62652;42.274;-71.436;2023-05-16T04:00:01;100390.0;;;17.0;unknown
64862;BME280;62652;42.274;-71.436;2023-05-16T04:01:00;100390.0;;;17.0;unknown
64862;BME280;62652;42.274;-71.436;2023-05-16T04:02:01;100390.0;;;17.0;unknown
64862;BME280;62652;42.274;-71.436;2023-05-16T04:03:00;100390.0;;;17.11111111111111;unknown
64862;BME280;62652;42.274;-71.436;2023-05-16T04:04:00;100390.0;;;17.11111111111111;unknown
64862;BME280;62652;42.274;-71.436;2023-05-16T04:05:00;100390.0;;;17.11111111111111;unknown
64862;BME280;62652;42.274;-71.436;2023-05-16T04:06:01;100380.0;;;17.11111111111111;unknown
64862;BME280;62652;42.274;-71.436;2023-05-16T04:07:01;100390.0;;;17.11111111111111;unknown
64862;BME280;62652;42.274;-71.436;2023-05-16T04:08:00;100390.0;;;17.11111111111111;unknown
64862;BME280;62652;42.274;-71.436;2023-05-16T04:09:00;100390.0;;;17.22222222222222;unknown
64862;BME280;62652;42.274;-71.436;2023-05-16T04:10:00;100390.0;;;17.22222222222222;unknown
64862;BME280;62652;42.274;-71.436;2023-05-16T04:11:01;100390.0;;;17.11111111111111;unknown
64862;BME280;62652;42.274;-71.436;2023-05-16T04:12:00;100390.0;;;17.11111111111111;unknown
64862;BME280;62652;42.274;-71.436;2023-05-16T04:13:00;100390.0;;;17.11111111111111;unknown
64862;BME280;62652;42.274;-71.436;2023-05-16T04:14:00;100390.0;;;17.11111111111111;unknown
64862;BME280;62652;42.274;-71.436;2023-05-16T04:15:01;100390.0;;;17.0;unknown
64862;BME280;62652;42.274;-71.436;2023-05-16T04:16:00;100390.0;;;17.0;unknown
64862;BME280;62652;42.274;-71.436;2023-05-16T04:17:01;100400.0;;;17.0;unknown
64862;BME280;62652;42.274;-71.436;2023-05-16T04:18:00;100400.0;;;17.0;unknown
64862;BME280;62652;42.274;-71.436;2023-05-16T04:19:01;100390.0;;;17.0;unknown
64862;BME280;62652;42.274;-71.436;2023-05-16T04:20:01;100390.0;;;16.88888888888889;unknown
64862;BME280;62652;42.274;-71.436;2023-05-16T04:21:00;100390.0;;;16.88888888888889;unknown
64862;BME280;62652;42.274;-71.436;2023-05-16T04:22:00;100390.0;;;16.88888888888889;unknown
64862;BME280;62652;42.274;-71.436;2023-05-16T04:23:00;100390.0;;;16.77777777777778;unknown
64862;BME280;62652;42.274;-71.436;2023-05-16T04:24:01;100390.0;;;16.77777777777778;unknown
64862;BME280;62652;42.274;-71.436;2023-05-16T04:25:01;100390.0;;;16.72222222222222;unknown
64862;BME280;62652;42.274;-71.436;2023-05-16T04:26:00;100390.0;;;16.61111111111111;unknown
64862;BME280;62652;42.274;-71.436;2023-05-16T04:27:01;100380.0;;;16.61111111111111;unknown